Time;durP1;ratioP1;P1;durP2;ratioP2;P2;SDS_P1;SDS_P2;PMS_P1;PMS_P2;Temp;Humidity;BMP_temperature;BMP_pressure;BME280_temperature;BME280_humidity;BME280_pressure;Samples;Min_cycle;Max_cycle;Signal;HPM_P1;HPM_P2
2023/08/20 00:00:54;;;;;;;8.32;5.53;;;;;;;22.74;97.72;96892.09;5042250;28;20238;-64
2023/08/20 00:03:21;;;;;;;6.55;5.20;;;;;;;22.69;97.29;96884.63;5042242;28;20227;-63
2023/08/20 00:05:48;;;;;;;5.88;4.90;;;;;;;22.67;98.69;96892.09;5040478;28;20667;-62
2023/08/20 00:08:14;;;;;;;6.35;5.20;;;;;;;22.64;98.31;96897.03;5042467;28;20207;-63
2023/08/20 00:10:42;;;;;;;6.32;5.13;;;;;;;22.50;98.00;96882.78;5041967;28;20542;-62
2023/08/20 00:13:09;;;;;;;8.15;5.25;;;;;;;22.56;99.89;96894.59;5041587;28;20199;-63
2023/08/20 00:15:35;;;;;;;5.25;4.85;;;;;;;22.54;100.00;96892.09;5042826;28;20200;-63
2023/08/20 00:18:03;;;;;;;6.05;5.45;;;;;;;22.54;100.00;96888.56;5042234;28;20212;-63
2023/08/20 00:20:30;;;;;;;6.10;5.32;;;;;;;22.55;99.98;96891.06;5041470;28;20270;-63
2023/08/20 00:22:57;;;;;;;7.85;5.28;;;;;;;22.56;100.00;96892.72;5041911;28;20222;-62
2023/08/20 00:25:27;;;;;;;5.90;5.32;;;;;;;22.57;100.00;96897.06;5041259;28;20218;-62
2023/08/20 00:27:55;;;;;;;8.18;5.60;;;;;;;22.58;100.00;96895.19;5041847;28;20206;-63
2023/08/20 00:30:22;;;;;;;6.20;5.60;;;;;;;22.56;100.00;96902.69;5042032;28;20203;-63
2023/08/20 00:32:49;;;;;;;5.63;4.80;;;;;;;22.56;100.00;96903.50;5041010;28;20208;-62
2023/08/20 00:35:15;;;;;;;7.63;5.40;;;;;;;22.56;100.00;96911.59;5040819;28;20208;-61
2023/08/20 00:37:44;;;;;;;6.28;5.22;;;;;;;22.48;100.00;96903.75;5040749;28;20203;-62
2023/08/20 00:40:14;;;;;;;7.93;5.47;;;;;;;22.43;100.00;96898.13;5042204;28;20195;-63
2023/08/20 00:42:42;;;;;;;6.53;5.28;;;;;;;22.39;100.00;96906.88;5041409;28;20227;-62
2023/08/20 00:45:10;;;;;;;6.22;4.80;;;;;;;22.40;100.00;96905.81;5042006;28;20211;-63
2023/08/20 00:47:37;;;;;;;5.60;5.13;;;;;;;22.37;100.00;96903.53;5042132;28;20219;-63
2023/08/20 00:50:06;;;;;;;5.45;5.05;;;;;;;22.36;100.00;96913.50;5041831;28;20200;-63
2023/08/20 00:52:33;;;;;;;5.90;5.35;;;;;;;22.31;100.00;96910.63;5022748;28;20628;-63
2023/08/20 00:55:00;;;;;;;5.47;4.90;;;;;;;22.31;100.00;96913.31;5042044;28;20199;-62
2023/08/20 00:57:30;;;;;;;6.88;5.40;;;;;;;22.31;100.00;96911.44;5040941;28;20218;-63
2023/08/20 00:59:57;;;;;;;5.95;5.45;;;;;;;22.26;100.00;96911.25;5042047;28;20225;-63
2023/08/20 01:02:26;;;;;;;6.25;5.55;;;;;;;22.13;100.00;96905.03;5040319;28;20246;-63
2023/08/20 01:04:53;;;;;;;5.93;5.18;;;;;;;22.19;100.00;96901.50;5041803;28;20215;-63
2023/08/20 01:07:26;;;;;;;5.75;5.25;;;;;;;22.18;100.00;96906.06;5040810;28;20206;-65
2023/08/20 01:10:02;;;;;;;5.85;5.30;;;;;;;22.20;100.00;96908.56;5041689;28;20640;-63
2023/08/20 01:12:31;;;;;;;7.03;5.38;;;;;;;22.14;100.00;96906.72;5040929;28;20223;-62
2023/08/20 01:14:58;;;;;;;6.20;4.85;;;;;;;22.14;100.00;96920.19;5042387;28;20633;-63
2023/08/20 01:17:26;;;;;;;6.20;5.70;;;;;;;22.14;100.00;96920.97;5041390;28;20579;-62
2023/08/20 01:19:52;;;;;;;6.55;5.68;;;;;;;22.09;100.00;96925.34;5042038;28;20231;-63
2023/08/20 01:22:47;;;;;;;6.35;5.35;;;;;;;22.03;100.00;96918.09;5041283;28;20222;-62
2023/08/20 01:25:19;;;;;;;5.63;5.22;;;;;;;22.06;100.00;96912.31;5040080;28;20684;-63
2023/08/20 01:27:59;;;;;;;5.90;5.47;;;;;;;22.04;100.00;96914.34;5041294;28;20210;-62
2023/08/20 01:30:28;;;;;;;7.63;5.68;;;;;;;22.02;100.00;96916.44;5041542;28;20227;-63
2023/08/20 01:32:55;;;;;;;6.18;5.57;;;;;;;21.98;100.00;96915.19;5041685;28;20207;-63
2023/08/20 01:35:24;;;;;;;6.82;5.25;;;;;;;21.91;100.00;96915.19;5041710;28;20222;-63
2023/08/20 01:37:51;;;;;;;5.93;5.32;;;;;;;21.92;100.00;96916.03;5040242;28;20195;-61
2023/08/20 01:40:17;;;;;;;7.38;5.75;;;;;;;21.89;100.00;96917.25;5041424;28;21218;-63
2023/08/20 01:42:44;;;;;;;7.32;5.18;;;;;;;21.88;100.00;96920.13;5041114;28;20223;-63
2023/08/20 01:45:11;;;;;;;6.88;5.50;;;;;;;21.84;100.00;96919.72;5023700;28;20214;-61
2023/08/20 01:47:39;;;;;;;6.28;5.68;;;;;;;21.79;100.00;96920.34;5044356;28;20192;-62
2023/08/20 01:50:06;;;;;;;5.75;5.25;;;;;;;21.84;100.00;96920.56;5044678;28;20203;-62
2023/08/20 01:52:33;;;;;;;7.25;5.40;;;;;;;21.80;100.00;96927.38;5042821;28;20192;-62
2023/08/20 01:55:00;;;;;;;5.57;5.10;;;;;;;21.78;100.00;96924.09;5027957;28;20203;-62
2023/08/20 01:57:26;;;;;;;6.07;5.45;;;;;;;21.79;100.00;96927.59;5068299;28;20283;-61
2023/08/20 01:59:52;;;;;;;9.60;5.45;;;;;;;21.75;100.00;96920.97;5063409;28;20188;-63
2023/08/20 02:02:19;;;;;;;8.38;5.57;;;;;;;21.77;100.00;96929.66;5059425;28;20314;-62
2023/08/20 02:04:51;;;;;;;5.85;5.35;;;;;;;21.74;100.00;96930.06;5045478;28;20226;-62
2023/08/20 02:07:17;;;;;;;7.90;5.32;;;;;;;21.68;100.00;96931.72;5044501;28;20199;-62
2023/08/20 02:09:44;;;;;;;9.60;5.68;;;;;;;21.61;100.00;96925.50;5045090;28;20204;-63
2023/08/20 02:12:10;;;;;;;5.47;5.07;;;;;;;21.64;100.00;96924.28;5044916;28;20200;-62
2023/08/20 02:14:38;;;;;;;8.27;5.32;;;;;;;21.55;100.00;96926.31;5043977;28;20203;-62
2023/08/20 02:17:05;;;;;;;8.43;5.72;;;;;;;21.51;100.00;96917.00;5044548;28;20207;-62
2023/08/20 02:19:31;;;;;;;8.63;6.03;;;;;;;21.46;100.00;96915.97;5043399;28;20204;-63
2023/08/20 02:21:59;;;;;;;5.80;5.28;;;;;;;21.47;100.00;96929.19;5043352;28;20238;-62
2023/08/20 02:24:25;;;;;;;8.18;5.78;;;;;;;21.49;100.00;96916.38;5043008;28;20203;-61
2023/08/20 02:26:52;;;;;;;6.80;5.90;;;;;;;21.48;100.00;96925.47;5042524;28;20211;-62
2023/08/20 02:29:18;;;;;;;6.43;5.55;;;;;;;21.45;100.00;96925.06;5043725;28;20216;-62
2023/08/20 02:31:45;;;;;;;5.85;5.30;;;;;;;21.45;100.00;96931.28;5049258;28;20195;-62
2023/08/20 02:34:11;;;;;;;6.55;5.40;;;;;;;21.43;100.00;96922.59;5043002;28;21487;-63
2023/08/20 02:36:38;;;;;;;6.32;5.60;;;;;;;21.37;100.00;96931.44;5042552;28;20658;-61
2023/08/20 02:39:07;;;;;;;6.40;5.80;;;;;;;21.37;100.00;96934.16;5042663;28;20651;-62
2023/08/20 02:41:34;;;;;;;6.53;5.90;;;;;;;21.32;100.00;96932.09;5042176;28;20590;-62
2023/08/20 02:44:00;;;;;;;6.30;5.65;;;;;;;21.30;100.00;96934.13;5041432;28;20518;-62
2023/08/20 02:46:27;;;;;;;7.55;6.10;;;;;;;21.36;100.00;96942.44;5042658;28;20214;-62
2023/08/20 02:48:55;;;;;;;6.78;5.80;;;;;;;21.33;100.00;96943.66;5045103;28;20215;-63
2023/08/20 02:51:21;;;;;;;5.68;5.18;;;;;;;21.30;100.00;96946.75;5047306;28;20762;-62
2023/08/20 02:53:51;;;;;;;7.00;5.85;;;;;;;21.31;100.00;96943.03;5046215;28;20199;-62
2023/08/20 02:56:21;;;;;;;5.95;5.55;;;;;;;21.31;100.00;96951.09;5043818;28;20262;-62
2023/08/20 02:58:48;;;;;;;6.30;5.68;;;;;;;21.32;100.00;96958.16;5042486;28;20584;-61
2023/08/20 03:01:21;;;;;;;6.30;5.40;;;;;;;21.31;100.00;96951.09;5043832;28;20215;-62
2023/08/20 03:03:48;;;;;;;7.82;5.68;;;;;;;21.28;100.00;96952.34;5042990;28;20231;-61
2023/08/20 03:06:14;;;;;;;6.20;5.50;;;;;;;21.27;100.00;96957.91;5042960;28;20199;-61
2023/08/20 03:08:41;;;;;;;8.23;6.13;;;;;;;21.23;100.00;96951.28;5041707;28;20210;-63
2023/08/20 03:11:07;;;;;;;6.07;5.57;;;;;;;21.23;100.00;96953.97;5042452;28;20207;-62
2023/08/20 03:13:35;;;;;;;6.53;5.90;;;;;;;21.20;100.00;96959.75;5042518;28;20207;-63
2023/08/20 03:16:02;;;;;;;5.90;5.40;;;;;;;21.17;100.00;96958.31;5042639;28;20216;-62
2023/08/20 03:18:30;;;;;;;7.03;5.60;;;;;;;21.17;100.00;96954.78;5042090;28;20219;-62
2023/08/20 03:20:57;;;;;;;7.60;5.57;;;;;;;21.11;100.00;96955.59;5042780;28;20211;-62
2023/08/20 03:23:24;;;;;;;6.63;5.80;;;;;;;21.13;100.00;96964.28;5042081;28;20231;-62
2023/08/20 03:25:51;;;;;;;6.93;5.40;;;;;;;21.12;100.00;96968.81;5043273;28;20195;-64
2023/08/20 03:28:19;;;;;;;7.68;5.70;;;;;;;21.07;100.00;96967.75;5042005;28;20210;-63
2023/08/20 03:30:47;;;;;;;6.15;5.50;;;;;;;21.05;100.00;96977.88;5042855;28;20203;-62
2023/08/20 03:33:16;;;;;;;6.68;5.60;;;;;;;21.00;100.00;96966.91;5042550;28;20211;-63
2023/08/20 03:35:43;;;;;;;7.05;6.18;;;;;;;21.00;100.00;96974.97;5042961;28;20211;-63
2023/08/20 03:38:10;;;;;;;6.30;5.70;;;;;;;20.93;100.00;96980.31;5041300;28;20221;-63
2023/08/20 03:40:37;;;;;;;6.85;5.80;;;;;;;20.94;100.00;96981.16;5042214;28;20217;-61
2023/08/20 03:43:03;;;;;;;6.72;5.80;;;;;;;20.93;100.00;96984.84;5042298;28;20231;-62
2023/08/20 03:45:31;;;;;;;6.25;5.60;;;;;;;20.85;100.00;96981.31;5043053;28;20215;-61
2023/08/20 03:47:59;;;;;;;6.55;5.55;;;;;;;20.87;100.00;96985.66;5042245;28;20210;-62
2023/08/20 03:50:27;;;;;;;6.10;5.53;;;;;;;20.80;100.00;96980.22;5042553;28;20200;-62
2023/08/20 03:52:54;;;;;;;6.13;5.60;;;;;;;20.79;100.00;96979.41;5024074;28;20302;-63
2023/08/20 03:55:20;;;;;;;6.90;5.68;;;;;;;20.75;100.00;96994.28;5042201;28;20222;-63
2023/08/20 03:57:47;;;;;;;6.65;5.22;;;;;;;20.79;100.00;96987.47;5043076;28;20222;-62
2023/08/20 04:00:14;;;;;;;6.18;5.60;;;;;;;20.75;100.00;96988.06;5041336;28;20214;-62
2023/08/20 04:02:44;;;;;;;6.07;5.57;;;;;;;20.74;100.00;96987.22;5042489;28;20231;-62
2023/08/20 04:05:14;;;;;;;6.30;5.70;;;;;;;20.71;100.00;96998.38;5043113;28;20200;-62
2023/08/20 04:07:41;;;;;;;6.95;5.65;;;;;;;20.68;100.00;96992.56;5047417;28;20255;-63
2023/08/20 04:10:09;;;;;;;6.55;5.40;;;;;;;20.69;100.00;96994.25;5060576;28;20211;-62
2023/08/20 04:12:36;;;;;;;7.47;5.90;;;;;;;20.66;100.00;96997.28;5057683;28;20210;-62
2023/08/20 04:15:03;;;;;;;9.88;6.10;;;;;;;20.63;100.00;96995.00;5059232;28;20207;-63
2023/08/20 04:17:30;;;;;;;6.97;5.63;;;;;;;20.62;100.00;96999.56;5058145;28;20208;-62
2023/08/20 04:19:57;;;;;;;9.27;6.15;;;;;;;20.59;100.00;96999.94;5044574;28;20234;-62
2023/08/20 04:22:25;;;;;;;5.78;5.13;;;;;;;20.59;100.00;96997.25;5041743;28;20224;-63
2023/08/20 04:24:51;;;;;;;6.88;5.28;;;;;;;20.58;100.00;96986.72;5040797;28;20214;-63
2023/08/20 04:27:17;;;;;;;7.38;5.65;;;;;;;20.54;100.00;96990.84;5040841;28;20210;-64
2023/08/20 04:29:44;;;;;;;6.03;5.55;;;;;;;20.53;100.00;96995.38;5041025;28;20214;-65
2023/08/20 04:32:10;;;;;;;6.28;5.75;;;;;;;20.51;100.00;96986.66;5042402;28;20207;-63
2023/08/20 04:34:37;;;;;;;7.45;5.60;;;;;;;20.50;100.00;96990.41;5041191;28;20281;-63
2023/08/20 04:37:03;;;;;;;6.95;6.20;;;;;;;20.54;100.00;96998.88;5041838;28;20207;-63
2023/08/20 04:39:31;;;;;;;10.30;6.40;;;;;;;20.47;100.00;96985.41;5040763;28;20212;-64
2023/08/20 04:42:00;;;;;;;6.47;5.88;;;;;;;20.48;100.00;97000.50;5040364;28;20208;-62
2023/08/20 04:44:26;;;;;;;6.85;5.90;;;;;;;20.47;100.00;96992.63;5044520;28;20394;-62
2023/08/20 04:46:52;;;;;;;8.43;6.50;;;;;;;20.47;100.00;96988.09;5042640;28;20301;-63
2023/08/20 04:49:19;;;;;;;8.98;6.07;;;;;;;20.50;100.00;96994.94;5041865;28;20199;-64
2023/08/20 04:51:45;;;;;;;7.13;5.55;;;;;;;20.49;100.00;96987.88;5041458;28;20538;-62
2023/08/20 04:54:12;;;;;;;8.73;6.43;;;;;;;20.50;100.00;96995.75;5041523;28;20215;-64
2023/08/20 04:56:40;;;;;;;7.43;5.90;;;;;;;20.49;100.00;96988.72;5043148;28;20607;-63
2023/08/20 04:59:06;;;;;;;6.28;5.68;;;;;;;20.53;100.00;96994.53;5041202;28;20447;-62
2023/08/20 05:01:33;;;;;;;6.15;5.75;;;;;;;20.56;100.00;96994.13;5040935;28;20246;-63
2023/08/20 05:03:59;;;;;;;6.43;5.82;;;;;;;20.62;100.00;96998.72;5040513;28;20819;-62
2023/08/20 05:06:26;;;;;;;6.47;5.97;;;;;;;20.63;100.00;96995.84;5040263;28;20195;-63
2023/08/20 05:08:52;;;;;;;6.70;5.95;;;;;;;20.69;100.00;96994.25;5040470;28;20640;-62
2023/08/20 05:11:18;;;;;;;6.05;5.55;;;;;;;20.66;100.00;96995.44;5040470;28;20211;-63
2023/08/20 05:13:48;;;;;;;6.45;5.80;;;;;;;20.74;100.00;96992.59;5039612;28;20639;-62
2023/08/20 05:16:14;;;;;;;7.28;5.82;;;;;;;20.73;100.00;96990.94;5040804;28;20216;-63
2023/08/20 05:18:40;;;;;;;7.80;5.55;;;;;;;20.80;100.00;96991.81;5040630;28;20242;-61
2023/08/20 05:21:07;;;;;;;6.32;5.78;;;;;;;20.89;100.00;96992.50;5043295;28;20635;-63
2023/08/20 05:23:33;;;;;;;6.22;5.72;;;;;;;21.01;100.00;97001.63;5045625;28;20554;-63
2023/08/20 05:26:00;;;;;;;5.93;5.43;;;;;;;21.11;100.00;97009.38;5045643;28;20649;-63
2023/08/20 05:28:26;;;;;;;6.65;5.90;;;;;;;21.18;100.00;97004.88;5044840;28;20222;-61
2023/08/20 05:30:58;;;;;;;6.65;5.75;;;;;;;21.32;100.00;97003.88;5045750;28;20199;-63
2023/08/20 05:33:26;;;;;;;5.95;5.35;;;;;;;21.43;100.00;97014.06;5045167;28;20200;-62
2023/08/20 05:35:53;;;;;;;7.22;5.45;;;;;;;21.67;100.00;97015.38;5045299;28;20203;-62
2023/08/20 05:38:20;;;;;;;7.00;6.43;;;;;;;21.93;100.00;97014.66;5044144;28;20208;-61
2023/08/20 05:40:46;;;;;;;6.78;6.15;;;;;;;22.17;100.00;97011.34;5044846;28;20200;-63
2023/08/20 05:43:13;;;;;;;6.70;6.10;;;;;;;22.32;100.00;97018.16;5044446;28;20231;-63
2023/08/20 05:45:39;;;;;;;8.63;6.22;;;;;;;;;;5044694;28;20527;-61
2023/08/20 05:48:07;;;;;;;7.28;6.68;;;;;;;22.68;100.00;97025.84;5044978;28;20225;-63
2023/08/20 05:50:35;;;;;;;7.30;6.57;;;;;;;22.88;100.00;97030.41;5045031;28;20214;-62
2023/08/20 05:53:03;;;;;;;7.38;6.68;;;;;;;22.99;100.00;97027.06;5044622;28;20204;-62
2023/08/20 05:55:29;;;;;;;8.02;6.60;;;;;;;23.08;100.00;97020.38;5045091;28;20222;-61
2023/08/20 05:57:57;;;;;;;7.90;6.65;;;;;;;23.10;100.00;97018.28;5044901;28;20200;-71
2023/08/20 06:00:23;;;;;;;7.20;6.60;;;;;;;23.09;100.00;97024.75;5047105;28;20207;-62
2023/08/20 06:02:50;;;;;;;6.82;6.20;;;;;;;23.07;100.00;97022.25;5043846;28;20220;-62
2023/08/20 06:05:18;;;;;;;7.70;7.00;;;;;;;23.05;100.00;97028.91;5044042;28;20202;-61
2023/08/20 06:07:45;;;;;;;11.20;7.15;;;;;;;23.02;100.00;97037.44;5043417;28;20214;-62
2023/08/20 06:10:11;;;;;;;7.55;6.75;;;;;;;23.18;100.00;97031.56;5042794;28;20207;-61
2023/08/20 06:12:38;;;;;;;8.15;6.72;;;;;;;23.21;100.00;97031.13;5043192;28;20223;-61
2023/08/20 06:15:06;;;;;;;7.05;6.45;;;;;;;23.26;100.00;97034.03;5044006;28;20195;-62
2023/08/20 06:17:32;;;;;;;8.52;7.00;;;;;;;23.45;100.00;97038.56;5043693;28;20799;-62
2023/08/20 06:19:59;;;;;;;7.78;7.03;;;;;;;23.66;100.00;97040.97;5044914;28;20203;-61
2023/08/20 06:22:27;;;;;;;10.10;6.63;;;;;;;23.98;100.00;97032.88;5055782;28;20211;-60
2023/08/20 06:24:54;;;;;;;7.28;6.68;;;;;;;24.35;100.00;97026.59;5058593;28;20216;-63
2023/08/20 06:27:21;;;;;;;7.95;7.00;;;;;;;24.76;100.00;97026.06;5055734;28;20200;-63
2023/08/20 06:29:47;;;;;;;6.80;6.20;;;;;;;25.10;98.54;97025.50;5050737;28;20204;-61
2023/08/20 06:32:14;;;;;;;6.95;6.35;;;;;;;25.37;95.14;97033.31;5043678;28;20204;-63
2023/08/20 06:34:41;;;;;;;7.07;6.38;;;;;;;25.70;93.07;97028.34;5049502;28;20218;-60
2023/08/20 06:37:08;;;;;;;7.22;6.53;;;;;;;25.92;92.61;97031.38;5058689;28;20231;-62
2023/08/20 06:39:36;;;;;;;7.45;6.75;;;;;;;26.18;90.70;97029.13;5050954;28;20282;-61
2023/08/20 06:42:03;;;;;;;8.00;6.72;;;;;;;26.43;87.56;97034.38;5041602;28;20199;-61
2023/08/20 06:44:29;;;;;;;7.28;6.57;;;;;;;26.63;85.91;97031.34;5043316;28;20231;-61
2023/08/20 06:46:56;;;;;;;7.43;6.53;;;;;;;26.91;85.52;97041.53;5043654;28;20204;-61
2023/08/20 06:49:22;;;;;;;8.82;6.18;;;;;;;27.14;83.80;97045.06;5043359;28;20221;-61
2023/08/20 06:51:49;;;;;;;8.70;6.20;;;;;;;27.36;82.79;97039.00;5044340;28;20204;-61
2023/08/20 06:54:15;;;;;;;7.90;6.70;;;;;;;27.49;81.42;97045.03;5052566;28;20605;-62
2023/08/20 06:56:43;;;;;;;7.32;6.05;;;;;;;27.66;81.77;97045.94;5051948;28;20212;-64
2023/08/20 06:59:10;;;;;;;6.40;5.57;;;;;;;27.84;78.36;97036.78;5046022;28;20543;-62
2023/08/20 07:01:37;;;;;;;6.63;6.03;;;;;;;27.97;79.97;97041.09;5043717;28;20273;-62
2023/08/20 07:04:08;;;;;;;7.47;5.97;;;;;;;27.73;81.37;97044.97;5042394;28;20238;-63
2023/08/20 07:06:35;;;;;;;6.95;6.30;;;;;;;27.85;78.19;97045.75;5043173;28;20219;-63
2023/08/20 07:09:03;;;;;;;7.20;6.50;;;;;;;28.36;76.46;97040.22;5043246;28;20207;-62
2023/08/20 07:11:30;;;;;;;8.43;6.28;;;;;;;28.52;76.38;97039.38;5043458;28;20208;-60
2023/08/20 07:13:58;;;;;;;6.50;6.00;;;;;;;28.51;75.83;97037.75;5043195;28;20649;-61
2023/08/20 07:16:24;;;;;;;7.10;6.40;;;;;;;28.79;76.16;97038.78;5042656;28;20283;-65
2023/08/20 07:18:52;;;;;;;9.93;6.82;;;;;;;28.76;77.94;97042.81;5043333;28;20542;-62
2023/08/20 07:21:19;;;;;;;6.63;6.13;;;;;;;28.96;74.00;97039.56;5042261;28;20269;-60
2023/08/20 07:23:45;;;;;;;6.72;5.95;;;;;;;29.11;73.03;97047.97;5041755;28;20226;-61
2023/08/20 07:26:12;;;;;;;6.78;6.18;;;;;;;29.13;73.79;97043.09;5042320;28;20207;-65
2023/08/20 07:31:21;;;;;;;7.40;6.07;;;;;;;29.03;70.59;97051.94;5038391;28;20210;-68
2023/08/20 07:33:48;;;;;;;6.85;6.15;;;;;;;29.07;73.52;97053.09;5041522;28;20203;-64
2023/08/20 07:36:15;;;;;;;7.82;5.90;;;;;;;29.18;73.37;97059.53;5040387;28;20258;-64
2023/08/20 07:38:42;;;;;;;6.85;6.25;;;;;;;29.26;72.41;97059.13;5043618;28;20213;-64
2023/08/20 07:41:09;;;;;;;7.50;6.32;;;;;;;29.10;74.04;97046.31;5042800;28;20207;-65
2023/08/20 07:43:36;;;;;;;6.93;6.15;;;;;;;29.33;74.87;97050.78;5024712;28;20236;-64
2023/08/20 07:46:03;;;;;;;7.88;6.47;;;;;;;29.05;72.60;97055.22;5043463;28;20208;-64
2023/08/20 07:48:33;;;;;;;7.78;6.68;;;;;;;29.39;72.31;97049.75;5041649;28;20203;-64
2023/08/20 07:51:00;;;;;;;7.68;6.22;;;;;;;29.51;74.38;97053.19;5041571;28;20199;-63
2023/08/20 07:53:26;;;;;;;8.13;6.55;;;;;;;29.79;74.34;97052.19;5044899;28;20206;-63
2023/08/20 07:55:53;;;;;;;8.20;6.85;;;;;;;29.73;68.49;97055.91;5042926;28;20207;-64
2023/08/20 07:58:19;;;;;;;7.25;6.15;;;;;;;29.77;71.51;97054.31;5040710;28;20668;-65
2023/08/20 08:00:46;;;;;;;7.15;6.47;;;;;;;29.85;69.93;97045.72;5041693;28;20536;-63
2023/08/20 08:03:14;;;;;;;6.38;5.80;;;;;;;29.98;69.10;97048.06;5041647;28;20553;-65
2023/08/20 08:05:42;;;;;;;8.10;6.40;;;;;;;29.91;70.07;97050.16;5041643;28;20258;-65
2023/08/20 08:08:08;;;;;;;7.75;6.18;;;;;;;30.31;70.53;97053.31;5041759;28;20235;-65
2023/08/20 08:10:35;;;;;;;7.25;6.53;;;;;;;30.29;70.08;97054.69;5042545;28;20270;-64
2023/08/20 08:13:02;;;;;;;6.72;6.03;;;;;;;30.47;70.01;97051.56;5041914;28;20207;-64
2023/08/20 08:15:29;;;;;;;7.93;7.10;;;;;;;30.45;68.68;97060.03;5024769;28;20204;-65
2023/08/20 08:17:55;;;;;;;8.48;6.35;;;;;;;30.10;69.62;97051.47;5041764;28;20254;-64
2023/08/20 08:20:22;;;;;;;8.77;6.72;;;;;;;30.17;69.59;97046.63;5023967;28;20199;-65
2023/08/20 08:22:50;;;;;;;8.43;6.93;;;;;;;30.23;68.32;97052.94;5041170;28;20211;-63
2023/08/20 08:25:16;;;;;;;7.25;6.55;;;;;;;30.02;69.91;97060.09;5041241;28;20219;-65
2023/08/20 08:27:43;;;;;;;7.47;6.78;;;;;;;30.14;70.68;97052.59;5041060;28;20200;-64
2023/08/20 08:30:09;;;;;;;7.07;6.38;;;;;;;30.27;70.61;97057.66;5041736;28;20206;-62
2023/08/20 08:32:36;;;;;;;9.65;6.30;;;;;;;30.33;71.08;97064.78;5040757;28;20211;-63
2023/08/20 08:35:04;;;;;;;7.72;6.88;;;;;;;30.45;69.19;97065.50;5040687;28;20196;-63
2023/08/20 08:37:31;;;;;;;7.72;6.68;;;;;;;30.79;68.18;97054.31;5045585;28;20208;-64
2023/08/20 08:40:05;;;;;;;6.90;6.30;;;;;;;30.79;68.39;97059.75;5052274;28;20199;-64
2023/08/20 08:42:32;;;;;;;9.63;6.90;;;;;;;30.99;65.66;97059.97;5024135;28;20199;-63
2023/08/20 08:45:00;;;;;;;10.10;6.65;;;;;;;30.90;65.70;97056.84;5041390;28;20241;-65
2023/08/20 08:47:27;;;;;;;7.45;6.68;;;;;;;31.27;68.79;97059.63;5041516;28;20211;-63
2023/08/20 08:49:56;;;;;;;7.47;6.70;;;;;;;31.30;67.61;97056.34;5041524;28;20199;-63
2023/08/20 08:52:25;;;;;;;6.63;6.13;;;;;;;31.41;66.64;97066.25;5042836;28;20226;-64
2023/08/20 08:54:52;;;;;;;8.52;6.78;;;;;;;31.22;63.22;97065.03;5040349;28;20202;-66
2023/08/20 08:57:20;;;;;;;7.22;6.53;;;;;;;31.36;64.62;97071.69;5047105;28;20543;-64
2023/08/20 08:59:48;;;;;;;8.32;7.22;;;;;;;31.55;65.41;97064.72;5048813;28;20195;-64
2023/08/20 09:02:18;;;;;;;7.03;6.07;;;;;;;31.77;66.79;97066.47;5047784;28;20211;-64
2023/08/20 09:04:45;;;;;;;7.35;6.68;;;;;;;31.79;66.28;97056.06;5047059;28;20241;-65
2023/08/20 09:07:13;;;;;;;9.32;7.05;;;;;;;31.75;62.54;97063.97;5048261;28;20239;-62
2023/08/20 09:09:43;;;;;;;7.82;6.88;;;;;;;31.73;62.79;97057.13;5048592;28;20202;-64
2023/08/20 09:12:14;;;;;;;8.73;7.20;;;;;;;31.91;61.27;97062.13;5048115;28;20204;-64
2023/08/20 09:14:45;;;;;;;9.68;6.68;;;;;;;32.05;61.69;97052.34;5053130;28;20203;-65
2023/08/20 09:17:12;;;;;;;7.35;6.32;;;;;;;31.86;59.14;97059.38;5047404;28;20190;-63
2023/08/20 09:19:39;;;;;;;7.82;6.45;;;;;;;31.86;60.09;97059.38;5047128;28;20222;-63
2023/08/20 09:22:05;;;;;;;7.63;6.28;;;;;;;31.72;60.00;97058.22;5047852;28;20199;-65
2023/08/20 09:24:34;;;;;;;8.68;6.47;;;;;;;31.88;58.46;97059.94;5046411;28;20235;-66
2023/08/20 09:27:01;;;;;;;8.32;6.53;;;;;;;31.74;60.47;97062.34;5046819;28;20531;-64
2023/08/20 09:29:27;;;;;;;11.18;6.80;;;;;;;31.84;59.49;97062.38;5046575;28;20214;-65
2023/08/20 09:32:01;;;;;;;8.30;6.45;;;;;;;31.98;59.57;97068.19;5046803;28;20903;-66
2023/08/20 09:34:37;;;;;;;6.90;6.30;;;;;;;32.02;57.99;97063.81;5046625;28;20200;-65
2023/08/20 09:37:03;;;;;;;9.05;6.85;;;;;;;32.00;59.97;97060.50;5048857;28;20199;-62
2023/08/20 09:39:30;;;;;;;7.30;6.60;;;;;;;32.32;57.55;97063.91;5047603;28;20211;-64
2023/08/20 09:41:56;;;;;;;9.65;6.45;;;;;;;32.54;62.81;97059.03;5048441;28;20203;-64
2023/08/20 09:44:23;;;;;;;9.90;6.50;;;;;;;32.55;59.40;97057.13;5029100;28;20241;-63
2023/08/20 09:46:50;;;;;;;6.88;6.20;;;;;;;32.61;57.09;97061.53;5047883;28;20644;-63
2023/08/20 09:49:19;;;;;;;7.03;6.32;;;;;;;32.70;57.73;97059.06;5047987;28;20223;-64
2023/08/20 09:51:48;;;;;;;10.18;6.30;;;;;;;32.85;57.40;97061.78;5048116;28;20521;-63
2023/08/20 09:54:21;;;;;;;7.15;6.15;;;;;;;32.99;57.98;97058.22;5047924;28;20219;-65
2023/08/20 09:56:51;;;;;;;8.52;6.90;;;;;;;32.95;56.05;97056.31;5047259;28;20610;-65
2023/08/20 09:59:18;;;;;;;8.48;6.00;;;;;;;33.01;55.33;97063.44;5047328;28;20211;-64
2023/08/20 10:01:49;;;;;;;6.57;5.90;;;;;;;33.11;56.63;97057.97;5046680;28;20202;-63
2023/08/20 10:04:18;;;;;;;6.93;6.32;;;;;;;33.08;56.83;97060.41;5046786;28;20667;-64
2023/08/20 10:06:45;;;;;;;6.80;6.18;;;;;;;32.51;55.36;97051.34;5047022;28;20200;-64
2023/08/20 10:09:12;;;;;;;7.03;6.25;;;;;;;33.04;56.69;97050.00;5044423;28;20200;-64
2023/08/20 10:11:40;;;;;;;6.57;5.93;;;;;;;33.09;54.92;97051.91;5043755;28;20664;-63
2023/08/20 10:14:07;;;;;;;7.20;6.35;;;;;;;33.10;54.16;97059.03;5044432;28;20986;-64
2023/08/20 10:16:34;;;;;;;9.35;6.45;;;;;;;33.09;56.83;97045.63;5045119;28;20204;-65
2023/08/20 10:19:03;;;;;;;8.00;5.93;;;;;;;33.19;56.67;97054.69;5044299;28;20522;-63
2023/08/20 10:21:31;;;;;;;6.68;6.00;;;;;;;33.38;56.31;97050.25;5045047;28;20222;-64
2023/08/20 10:23:57;;;;;;;8.07;6.05;;;;;;;33.58;56.78;97056.78;5043631;28;20207;-64
2023/08/20 10:26:24;;;;;;;7.78;6.38;;;;;;;33.44;56.26;97057.34;5043739;28;20203;-67
2023/08/20 10:28:51;;;;;;;7.35;5.82;;;;;;;33.67;56.85;97053.19;5042369;28;20221;-67
2023/08/20 10:31:18;;;;;;;6.72;6.05;;;;;;;33.71;56.31;97051.53;5043689;28;20261;-66
2023/08/20 10:33:51;;;;;;;6.90;6.13;;;;;;;33.49;52.14;97054.59;5043668;28;20199;-65
2023/08/20 10:36:22;;;;;;;6.57;5.97;;;;;;;33.62;53.11;97049.63;5043934;28;20207;-64
2023/08/20 10:38:55;;;;;;;7.18;6.22;;;;;;;33.66;52.83;97042.53;5057522;28;20199;-67
2023/08/20 10:41:39;;;;;;;7.72;5.93;;;;;;;33.82;54.38;97046.81;5058949;28;20234;-69
2023/08/20 10:44:18;;;;;;;6.82;6.10;;;;;;;33.79;52.25;97033.69;5050672;28;20246;-61
2023/08/20 10:46:52;;;;;;;7.75;6.43;;;;;;;33.93;51.50;97029.22;5056363;28;20192;-66
2023/08/20 10:49:22;;;;;;;10.73;6.47;;;;;;;34.06;54.24;97034.06;5056608;28;20241;-62
2023/08/20 10:51:49;;;;;;;6.72;6.07;;;;;;;33.96;50.48;97034.13;5046629;28;20207;-67
2023/08/20 10:54:25;;;;;;;6.80;6.18;;;;;;;34.10;51.51;97032.41;5049727;28;20278;-64
2023/08/20 10:57:00;;;;;;;7.90;6.30;;;;;;;34.26;51.52;97033.19;5050402;28;20187;-62
2023/08/20 10:59:28;;;;;;;7.82;5.75;;;;;;;34.22;50.81;97035.69;5046303;28;20207;-63
2023/08/20 11:01:55;;;;;;;6.90;6.22;;;;;;;34.10;50.42;97026.91;5043594;28;20207;-62
2023/08/20 11:04:26;;;;;;;8.95;6.00;;;;;;;34.39;51.52;97024.28;5042307;28;20234;-65
2023/08/20 11:06:54;;;;;;;9.15;6.10;;;;;;;34.51;50.98;97026.69;5043468;28;20198;-64
2023/08/20 11:09:23;;;;;;;7.13;6.43;;;;;;;34.48;50.34;97026.13;5042178;28;20260;-63
2023/08/20 11:11:49;;;;;;;8.73;5.72;;;;;;;34.67;50.31;97028.22;5023954;28;20222;-64
2023/08/20 11:14:16;;;;;;;8.25;5.90;;;;;;;34.66;50.22;97027.41;5042739;28;20227;-64
2023/08/20 11:16:43;;;;;;;8.38;5.80;;;;;;;34.55;50.89;97019.50;5044822;28;20203;-65
2023/08/20 11:19:10;;;;;;;7.00;6.15;;;;;;;34.59;50.59;97017.81;5044179;28;20282;-64
2023/08/20 11:21:37;;;;;;;6.57;5.57;;;;;;;34.81;49.88;97018.22;5042149;28;20203;-65
2023/08/20 11:24:04;;;;;;;10.00;6.82;;;;;;;34.76;52.17;97016.31;5043780;28;20231;-64
2023/08/20 11:26:32;;;;;;;6.68;5.60;;;;;;;34.78;49.94;97014.13;5042140;28;20731;-64
2023/08/20 11:28:58;;;;;;;9.82;6.43;;;;;;;34.87;51.22;97011.56;5042510;28;20298;-65
2023/08/20 11:31:24;;;;;;;6.90;6.20;;;;;;;34.84;49.71;97017.63;5042276;28;20233;-65
2023/08/20 11:33:51;;;;;;;9.02;6.20;;;;;;;34.86;47.75;97009.94;5042825;28;20206;-65